createdAt,value
2022-10-22T00:02:21.427Z,16.63
2022-10-22T00:04:49.909Z,16.67
2022-10-22T00:07:20.459Z,18.07
2022-10-22T00:09:47.443Z,18.70
2022-10-22T00:12:15.968Z,17.07
2022-10-22T00:14:43.122Z,18.40
2022-10-22T00:17:11.502Z,18.67
2022-10-22T00:19:39.512Z,18.03
2022-10-22T00:22:06.892Z,18.27
2022-10-22T00:24:35.190Z,17.60
2022-10-22T00:27:02.415Z,18.57
2022-10-22T00:29:29.736Z,19.40
2022-10-22T00:31:56.987Z,18.60
2022-10-22T00:34:24.284Z,18.83
2022-10-22T00:36:51.876Z,18.70
2022-10-22T00:39:20.732Z,20.17
2022-10-22T00:41:49.102Z,19.10
2022-10-22T00:44:53.579Z,20.00
2022-10-22T00:47:22.552Z,18.57
2022-10-22T00:49:51.495Z,18.23
2022-10-22T00:52:18.435Z,19.23
2022-10-22T00:54:45.310Z,17.93
2022-10-22T00:57:12.066Z,17.83
2022-10-22T00:59:39.512Z,19.77
2022-10-22T01:02:06.254Z,19.20
2022-10-22T01:04:33.000Z,19.00
2022-10-22T01:06:59.936Z,19.73
2022-10-22T01:09:42.438Z,19.87
2022-10-22T01:12:17.490Z,19.57
2022-10-22T01:15:06.041Z,19.57
2022-10-22T01:18:06.905Z,18.67
2022-10-22T01:20:47.560Z,19.20
2022-10-22T01:23:21.248Z,21.00
2022-10-22T01:26:26.435Z,19.47
2022-10-22T01:29:17.384Z,19.73
2022-10-22T01:31:49.116Z,19.53
2022-10-22T01:34:19.026Z,19.27
2022-10-22T01:36:48.126Z,18.83
2022-10-22T01:39:16.260Z,19.37
2022-10-22T01:41:46.230Z,19.27
2022-10-22T01:44:27.706Z,19.47
2022-10-22T01:47:20.741Z,21.23
2022-10-22T01:49:56.064Z,19.23
2022-10-22T01:52:43.141Z,19.47
2022-10-22T01:55:18.283Z,19.13
2022-10-22T01:57:51.253Z,20.20
2022-10-22T02:00:18.989Z,19.10
2022-10-22T02:03:17.460Z,20.53
2022-10-22T02:05:51.744Z,19.50
2022-10-22T02:08:23.391Z,17.07
2022-10-22T02:10:52.323Z,18.13
2022-10-22T02:13:36.335Z,19.30
2022-10-22T02:16:06.603Z,19.53
2022-10-22T02:18:38.830Z,18.73
2022-10-22T02:23:39.489Z,18.13
2022-10-22T02:26:24.973Z,19.33
2022-10-22T02:28:58.026Z,17.97
2022-10-22T02:31:29.778Z,18.90
2022-10-22T02:34:00.666Z,18.40
2022-10-22T02:36:28.151Z,19.57
2022-10-22T02:38:55.978Z,19.03
2022-10-22T02:41:23.461Z,19.60
2022-10-22T02:43:54.481Z,20.10
2022-10-22T02:46:22.286Z,18.93
2022-10-22T02:48:49.341Z,19.13
2022-10-22T02:51:16.268Z,19.07
2022-10-22T02:53:43.020Z,19.53
2022-10-22T02:56:10.201Z,19.93
2022-10-22T02:58:36.958Z,19.23
2022-10-22T03:01:04.267Z,20.30
2022-10-22T03:03:31.156Z,19.73
2022-10-22T03:05:57.977Z,21.40
2022-10-22T03:08:24.764Z,20.40
2022-10-22T03:10:51.540Z,20.67
2022-10-22T03:13:18.285Z,20.67
2022-10-22T03:15:45.033Z,20.87
2022-10-22T03:18:12.029Z,20.97
2022-10-22T03:20:38.802Z,20.23
2022-10-22T03:23:06.121Z,20.17
2022-10-22T03:25:34.514Z,20.07
2022-10-22T03:28:05.195Z,19.10
2022-10-22T03:30:32.104Z,20.20
2022-10-22T03:32:58.848Z,19.70
2022-10-22T03:35:25.822Z,20.20
2022-10-22T03:37:52.819Z,21.30
2022-10-22T03:40:20.355Z,20.20
2022-10-22T03:42:47.309Z,20.23
2022-10-22T03:45:14.119Z,17.90
2022-10-22T03:47:41.247Z,19.37
2022-10-22T03:50:08.878Z,19.27
2022-10-22T03:52:37.890Z,19.23
2022-10-22T03:55:05.867Z,17.50
2022-10-22T03:57:32.730Z,18.40
2022-10-22T03:59:59.554Z,19.53
2022-10-22T04:02:26.415Z,17.77
2022-10-22T04:04:53.278Z,19.33
2022-10-22T04:07:20.099Z,20.43
2022-10-22T04:09:46.879Z,18.63
2022-10-22T04:12:13.790Z,19.60
2022-10-22T04:14:40.580Z,19.10
2022-10-22T04:17:07.308Z,20.30
2022-10-22T04:19:34.193Z,18.50
2022-10-22T04:22:01.634Z,19.53
2022-10-22T04:24:31.486Z,18.63
2022-10-22T04:26:58.933Z,18.53
2022-10-22T04:29:26.987Z,18.10
2022-10-22T04:31:53.757Z,17.37
2022-10-22T04:34:20.604Z,17.23
2022-10-22T04:36:47.457Z,18.63
2022-10-22T04:39:14.806Z,17.37
2022-10-22T04:41:41.557Z,18.10
2022-10-22T04:44:12.239Z,18.00
2022-10-22T04:46:42.824Z,17.90
2022-10-22T04:49:09.602Z,18.27
2022-10-22T04:51:36.356Z,17.40
2022-10-22T04:54:04.309Z,17.67
2022-10-22T04:56:32.843Z,17.70
2022-10-22T04:59:02.625Z,18.33
2022-10-22T05:01:39.899Z,17.93
2022-10-22T05:04:16.133Z,18.90
2022-10-22T05:06:43.703Z,17.47
2022-10-22T05:09:20.104Z,18.03
2022-10-22T05:11:49.969Z,16.20
2022-10-22T05:14:22.539Z,19.20
2022-10-22T05:16:50.610Z,18.03
2022-10-22T05:19:29.293Z,17.80
2022-10-22T05:21:59.165Z,16.23
2022-10-22T05:24:27.509Z,15.87
2022-10-22T05:26:57.079Z,16.93
2022-10-22T05:29:24.767Z,17.40
2022-10-22T05:31:51.794Z,15.93
2022-10-22T05:34:19.211Z,16.23
2022-10-22T05:36:46.274Z,16.10
2022-10-22T05:39:13.028Z,16.37
2022-10-22T05:41:39.948Z,16.23
2022-10-22T05:44:06.825Z,15.50
2022-10-22T05:46:35.859Z,16.10
2022-10-22T05:49:05.050Z,15.93
2022-10-22T05:51:34.796Z,15.57
2022-10-22T05:54:03.881Z,16.07
2022-10-22T05:56:32.079Z,15.00
2022-10-22T05:58:59.354Z,15.93
2022-10-22T06:01:31.713Z,15.87
2022-10-22T06:04:01.289Z,16.20
2022-10-22T06:06:54.256Z,17.47
2022-10-22T06:09:29.491Z,16.77
2022-10-22T06:11:58.223Z,17.37
2022-10-22T06:14:25.967Z,16.80
2022-10-22T06:16:53.477Z,18.47
2022-10-22T06:19:23.271Z,16.47
2022-10-22T06:21:50.080Z,17.40
2022-10-22T06:24:16.947Z,19.00
2022-10-22T06:26:43.944Z,17.73
2022-10-22T06:29:11.085Z,17.07
2022-10-22T06:31:37.908Z,17.50
2022-10-22T06:34:07.051Z,17.13
2022-10-22T06:36:34.086Z,17.60
2022-10-22T06:39:00.867Z,19.23
2022-10-22T06:41:28.901Z,18.20
2022-10-22T06:43:57.602Z,18.37
2022-10-22T06:46:25.200Z,18.10
2022-10-22T06:48:57.130Z,17.63
2022-10-22T06:51:24.850Z,17.70
2022-10-22T06:53:51.624Z,18.00
2022-10-22T06:56:21.297Z,18.40
2022-10-22T06:58:52.787Z,18.27
2022-10-22T07:01:22.315Z,18.87
2022-10-22T07:03:51.536Z,18.47
2022-10-22T07:06:18.941Z,18.50
2022-10-22T07:08:45.878Z,22.73
2022-10-22T07:11:17.150Z,17.70
2022-10-22T07:13:44.054Z,20.17
2022-10-22T07:16:12.456Z,20.60
2022-10-22T07:18:40.272Z,19.57
2022-10-22T07:21:08.651Z,18.83
2022-10-22T07:23:35.846Z,18.30
2022-10-22T07:26:02.997Z,17.70
2022-10-22T07:28:30.717Z,18.33
2022-10-22T07:30:57.494Z,17.87
2022-10-22T07:33:24.253Z,18.87
2022-10-22T07:35:51.091Z,19.63
2022-10-22T07:38:17.849Z,20.17
2022-10-22T07:40:44.682Z,19.10
2022-10-22T07:43:11.687Z,20.13
2022-10-22T07:45:38.541Z,19.50
2022-10-22T07:48:05.827Z,18.67
2022-10-22T07:50:32.590Z,17.77
2022-10-22T07:52:59.478Z,18.33
2022-10-22T07:55:26.503Z,17.97
2022-10-22T07:57:53.414Z,18.63
2022-10-22T08:00:23.081Z,19.40
2022-10-22T08:02:52.352Z,20.00
2022-10-22T08:05:19.368Z,19.63
2022-10-22T08:07:46.597Z,19.17
2022-10-22T08:10:13.735Z,19.37
2022-10-22T08:12:41.044Z,18.33
2022-10-22T08:15:08.713Z,19.50
2022-10-22T08:17:36.741Z,18.83
2022-10-22T08:20:04.354Z,18.27
2022-10-22T08:22:31.134Z,18.87
2022-10-22T08:24:57.978Z,19.40
2022-10-22T08:27:24.763Z,17.77
2022-10-22T08:29:51.741Z,18.43
2022-10-22T08:32:18.504Z,18.07
2022-10-22T08:34:45.247Z,19.73
2022-10-22T08:37:14.347Z,17.80
2022-10-22T08:39:41.450Z,19.13
2022-10-22T08:42:38.886Z,18.93
2022-10-22T08:45:09.010Z,18.93
2022-10-22T08:47:48.062Z,19.20
2022-10-22T08:50:22.623Z,19.50
2022-10-22T08:52:53.512Z,19.50
2022-10-22T08:55:24.045Z,18.40
2022-10-22T08:58:23.657Z,18.77
2022-10-22T09:01:02.877Z,18.10
2022-10-22T09:03:53.893Z,19.20
2022-10-22T09:06:24.781Z,19.13
2022-10-22T09:08:53.704Z,20.03
2022-10-22T09:11:20.450Z,18.97
2022-10-22T09:13:48.190Z,19.27
2022-10-22T09:16:19.406Z,19.03
2022-10-22T09:19:22.933Z,19.13
2022-10-22T09:22:17.564Z,18.70
2022-10-22T09:24:52.531Z,19.60
2022-10-22T09:27:23.626Z,18.90
2022-10-22T09:29:50.406Z,18.93
2022-10-22T09:32:18.188Z,18.67
2022-10-22T09:34:50.135Z,18.43
2022-10-22T09:37:19.531Z,17.80
2022-10-22T09:39:50.940Z,17.03
2022-10-22T09:42:21.043Z,16.77
2022-10-22T09:44:56.729Z,15.83
2022-10-22T09:47:42.908Z,15.43
2022-10-22T09:50:24.939Z,15.17
2022-10-22T09:53:11.645Z,14.87
2022-10-22T09:55:40.558Z,14.87
2022-10-22T09:58:14.209Z,14.90
2022-10-22T10:00:44.225Z,15.83
2022-10-22T10:03:21.792Z,15.70
2022-10-22T10:05:53.209Z,15.00
2022-10-22T10:08:20.391Z,15.30
2022-10-22T10:10:54.403Z,15.03
2022-10-22T10:13:42.446Z,14.77
2022-10-22T10:16:46.192Z,14.57
2022-10-22T10:19:39.486Z,14.70
2022-10-22T10:22:32.414Z,13.90
2022-10-22T10:25:26.567Z,13.37
2022-10-22T10:28:12.630Z,13.30
2022-10-22T10:31:11.377Z,13.00
2022-10-22T10:33:51.709Z,12.73
2022-10-22T10:36:43.308Z,13.00
2022-10-22T10:39:30.422Z,12.87
2022-10-22T10:42:35.705Z,12.47
2022-10-22T10:45:17.417Z,12.87
2022-10-22T10:48:25.678Z,13.30
2022-10-22T10:51:10.331Z,12.13
2022-10-22T10:54:11.456Z,12.17
2022-10-22T10:56:44.681Z,12.47
2022-10-22T10:59:39.620Z,11.93
2022-10-22T11:02:25.536Z,11.93
2022-10-22T11:04:55.273Z,11.57
2022-10-22T11:07:34.511Z,13.00
2022-10-22T11:10:28.686Z,13.13
2022-10-22T11:13:21.264Z,12.10
2022-10-22T11:16:10.120Z,12.37
2022-10-22T11:18:41.924Z,11.67
2022-10-22T11:21:11.643Z,11.77
2022-10-22T11:23:42.006Z,11.17
2022-10-22T11:26:19.168Z,10.70
2022-10-22T11:28:51.066Z,11.10
2022-10-22T11:31:19.050Z,10.30
2022-10-22T11:34:00.593Z,9.67
2022-10-22T11:36:33.676Z,9.40
2022-10-22T11:39:03.973Z,10.10
2022-10-22T11:41:33.427Z,9.60
2022-10-22T11:44:20.911Z,9.20
2022-10-22T11:46:58.779Z,9.47
2022-10-22T11:49:28.720Z,9.37
2022-10-22T11:52:23.264Z,8.93
2022-10-22T11:54:55.326Z,8.83
2022-10-22T11:57:27.249Z,8.90
2022-10-22T11:59:58.508Z,8.57
2022-10-22T12:02:38.421Z,7.57
2022-10-22T12:05:39.137Z,7.83
2022-10-22T12:08:21.475Z,8.00
2022-10-22T12:11:03.939Z,7.40
2022-10-22T12:13:51.904Z,7.13
2022-10-22T12:16:32.189Z,6.83
2022-10-22T12:19:25.732Z,6.60
2022-10-22T12:22:07.338Z,6.60
2022-10-22T12:24:40.599Z,6.73
2022-10-22T12:27:23.086Z,6.23
2022-10-22T12:29:55.462Z,5.37
2022-10-22T12:32:22.695Z,5.20
2022-10-22T12:34:51.483Z,5.00
2022-10-22T12:37:19.451Z,4.43
2022-10-22T12:39:46.770Z,4.23
2022-10-22T12:42:16.324Z,3.93
2022-10-22T12:44:46.080Z,4.03
2022-10-22T12:47:17.018Z,4.00
2022-10-22T12:49:47.945Z,3.80
2022-10-22T12:52:21.308Z,3.63
2022-10-22T12:54:52.355Z,3.40
2022-10-22T12:57:20.962Z,3.47
2022-10-22T12:59:50.630Z,3.33
2022-10-22T13:02:24.513Z,3.40
2022-10-22T13:05:20.985Z,3.20
2022-10-22T13:08:03.748Z,2.90
2022-10-22T13:10:36.383Z,2.90
2022-10-22T13:13:06.717Z,2.63
2022-10-22T13:15:37.585Z,2.93
2022-10-22T13:18:04.369Z,2.60
2022-10-22T13:20:31.409Z,2.87
2022-10-22T13:23:03.439Z,2.60
2022-10-22T13:25:31.933Z,2.67
2022-10-22T13:28:10.546Z,2.70
2022-10-22T13:30:39.108Z,2.50
2022-10-22T13:33:25.152Z,2.80
2022-10-22T13:35:52.840Z,2.57
2022-10-22T13:38:22.628Z,2.70
2022-10-22T13:40:49.855Z,2.63
2022-10-22T13:43:17.724Z,2.40
2022-10-22T13:45:46.686Z,2.97
2022-10-22T13:48:16.502Z,2.47
2022-10-22T13:50:43.683Z,2.83
2022-10-22T13:53:21.924Z,2.60
2022-10-22T13:55:50.184Z,2.30
2022-10-22T13:58:25.795Z,2.10
2022-10-22T14:00:58.925Z,2.40
2022-10-22T14:03:32.568Z,2.93
2022-10-22T14:05:59.855Z,2.20
2022-10-22T14:08:27.903Z,2.37
2022-10-22T14:10:54.928Z,2.43
2022-10-22T14:13:22.079Z,2.10
2022-10-22T14:15:51.513Z,2.10
2022-10-22T14:18:25.576Z,2.10
2022-10-22T14:20:54.927Z,2.23
2022-10-22T14:23:24.508Z,2.53
2022-10-22T14:25:53.691Z,2.50
2022-10-22T14:28:20.476Z,2.23
2022-10-22T14:30:48.166Z,2.13
2022-10-22T14:33:28.836Z,2.20
2022-10-22T14:36:00.040Z,2.47
2022-10-22T14:38:27.288Z,2.40
2022-10-22T14:40:54.816Z,2.23
2022-10-22T14:43:27.985Z,2.53
2022-10-22T14:45:54.808Z,2.10
2022-10-22T14:48:21.685Z,2.47
2022-10-22T14:50:48.914Z,2.40
2022-10-22T14:53:16.838Z,2.20
2022-10-22T14:55:44.886Z,2.40
2022-10-22T14:58:12.433Z,2.50
2022-10-22T15:00:41.952Z,2.30
2022-10-22T15:03:09.175Z,2.23
2022-10-22T15:05:36.410Z,2.63
2022-10-22T15:08:03.528Z,2.20
2022-10-22T15:10:30.329Z,2.40
2022-10-22T15:12:57.075Z,2.60
2022-10-22T15:15:25.588Z,2.20
2022-10-22T15:17:54.604Z,2.40
2022-10-22T15:20:21.379Z,2.50
2022-10-22T15:22:48.301Z,2.30
2022-10-22T15:25:15.079Z,2.60
2022-10-22T15:27:41.853Z,2.40
2022-10-22T15:30:09.020Z,2.57
2022-10-22T15:32:35.855Z,2.90
2022-10-22T15:35:03.184Z,3.57
2022-10-22T15:37:30.806Z,3.30
2022-10-22T15:39:58.311Z,3.23
2022-10-22T15:42:25.129Z,2.40
2022-10-22T15:44:58.353Z,4.57
2022-10-22T15:47:28.432Z,2.80
2022-10-22T15:49:55.602Z,2.87
2022-10-22T15:52:22.790Z,3.27
2022-10-22T15:54:49.636Z,2.63
2022-10-22T15:57:16.453Z,2.80
2022-10-22T15:59:43.274Z,3.20
2022-10-22T16:02:11.343Z,2.90
2022-10-22T16:04:38.986Z,3.13
2022-10-22T16:07:06.164Z,2.83
2022-10-22T16:09:32.935Z,2.97
2022-10-22T16:11:59.704Z,6.03
2022-10-22T16:14:28.586Z,5.60
2022-10-22T16:16:55.900Z,4.93
2022-10-22T16:19:24.786Z,7.17
2022-10-22T16:21:54.501Z,3.60
2022-10-22T16:24:22.624Z,3.70
2022-10-22T16:26:50.039Z,3.90
2022-10-22T16:29:16.862Z,3.40
2022-10-22T16:31:44.044Z,3.30
2022-10-22T16:34:11.556Z,3.13
2022-10-22T16:36:38.857Z,3.70
2022-10-22T16:39:06.922Z,3.20
2022-10-22T16:41:35.605Z,3.23
2022-10-22T16:44:05.263Z,3.83
2022-10-22T16:46:33.379Z,3.90
2022-10-22T16:49:00.399Z,4.70
2022-10-22T16:51:28.237Z,4.13
2022-10-22T16:53:56.702Z,3.70
2022-10-22T16:56:24.840Z,4.70
2022-10-22T16:58:54.785Z,3.87
2022-10-22T17:01:25.888Z,4.37
2022-10-22T17:03:54.736Z,4.30
2022-10-22T17:06:24.096Z,4.90
2022-10-22T17:08:50.975Z,4.87
2022-10-22T17:11:20.447Z,4.90
2022-10-22T17:13:49.596Z,4.90
2022-10-22T17:16:18.925Z,4.53
2022-10-22T17:21:14.465Z,5.20
2022-10-22T17:23:42.642Z,5.90
2022-10-22T17:26:17.845Z,4.67
2022-10-22T17:28:45.101Z,5.23
2022-10-22T17:31:18.137Z,5.20
2022-10-22T17:33:45.874Z,5.33
2022-10-22T17:36:13.673Z,5.70
2022-10-22T17:38:42.294Z,6.37
2022-10-22T17:41:14.562Z,6.20
2022-10-22T17:43:41.703Z,5.93
2022-10-22T17:46:20.671Z,8.23
2022-10-22T17:48:56.824Z,7.57
2022-10-22T17:51:26.326Z,7.20
2022-10-22T17:53:53.761Z,6.83
2022-10-22T17:56:23.759Z,6.60
2022-10-22T17:58:51.332Z,8.33
2022-10-22T18:01:22.686Z,7.47
2022-10-22T18:03:49.696Z,9.67
2022-10-22T18:06:16.714Z,8.83
2022-10-22T18:08:43.760Z,8.40
2022-10-22T18:11:13.298Z,7.00
2022-10-22T18:13:40.053Z,8.40
2022-10-22T18:16:07.131Z,10.93
2022-10-22T18:18:35.471Z,7.23
2022-10-22T18:21:03.460Z,7.47
2022-10-22T18:23:30.267Z,7.30
2022-10-22T18:25:57.001Z,8.57
2022-10-22T18:28:23.824Z,8.93
2022-10-22T18:30:51.298Z,7.90
2022-10-22T18:33:19.062Z,6.80
2022-10-22T18:35:46.587Z,6.40
2022-10-22T18:38:13.426Z,6.03
2022-10-22T18:40:47.092Z,5.40
2022-10-22T18:43:15.109Z,5.50
2022-10-22T18:45:43.573Z,5.83
2022-10-22T18:48:10.983Z,5.23
2022-10-22T18:50:37.814Z,5.33
2022-10-22T18:53:04.841Z,5.73
2022-10-22T18:55:31.602Z,5.57
2022-10-22T18:57:58.352Z,5.50
2022-10-22T19:00:28.416Z,5.93
2022-10-22T19:02:55.326Z,6.20
2022-10-22T19:05:22.191Z,4.87
2022-10-22T19:07:52.127Z,5.23
2022-10-22T19:10:18.937Z,7.53
2022-10-22T19:12:45.676Z,6.30
2022-10-22T19:15:12.599Z,5.70
2022-10-22T19:17:39.562Z,6.27
2022-10-22T19:20:07.063Z,6.07
2022-10-22T19:22:33.810Z,6.13
2022-10-22T19:25:00.656Z,7.17
2022-10-22T19:27:27.416Z,7.00
2022-10-22T19:29:54.198Z,7.23
2022-10-22T19:32:21.082Z,7.03
2022-10-22T19:34:47.873Z,7.43
2022-10-22T19:37:14.791Z,7.87
2022-10-22T19:39:41.755Z,7.30
2022-10-22T19:42:08.518Z,7.13
2022-10-22T19:44:35.694Z,7.90
2022-10-22T19:47:02.497Z,8.23
2022-10-22T19:49:29.373Z,8.33
2022-10-22T19:51:56.139Z,9.87
2022-10-22T19:54:22.972Z,11.40
2022-10-22T19:56:50.241Z,11.47
2022-10-22T19:59:20.367Z,10.50
2022-10-22T20:01:47.131Z,9.93
2022-10-22T20:04:15.639Z,10.60
2022-10-22T20:06:43.130Z,9.37
2022-10-22T20:09:11.156Z,9.70
2022-10-22T20:11:39.144Z,9.43
2022-10-22T20:14:05.929Z,8.70
2022-10-22T20:16:32.872Z,9.17
2022-10-22T20:19:02.028Z,8.20
2022-10-22T20:21:29.242Z,9.10
2022-10-22T20:23:57.374Z,8.63
2022-10-22T20:26:27.839Z,8.93
2022-10-22T20:28:56.316Z,8.00
2022-10-22T20:31:26.519Z,7.47
2022-10-22T20:33:55.161Z,6.87
2022-10-22T20:36:23.568Z,6.90
2022-10-22T20:38:51.515Z,6.53
2022-10-22T20:41:21.028Z,7.57
2022-10-22T20:43:49.250Z,7.53
2022-10-22T20:46:29.265Z,7.20
2022-10-22T20:49:01.615Z,7.70
2022-10-22T20:51:28.824Z,7.47
2022-10-22T20:53:55.594Z,7.33
2022-10-22T20:56:23.178Z,7.70
2022-10-22T20:58:53.697Z,7.43
2022-10-22T21:01:24.319Z,8.03
2022-10-22T21:03:52.387Z,7.87
2022-10-22T21:06:23.518Z,9.07
2022-10-22T21:08:51.435Z,7.60
2022-10-22T21:11:19.407Z,7.30
2022-10-22T21:13:46.581Z,8.83
2022-10-22T21:16:15.058Z,6.67
2022-10-22T21:18:41.819Z,7.03
2022-10-22T21:21:09.522Z,7.87
2022-10-22T21:23:37.237Z,7.50
2022-10-22T21:26:04.649Z,8.30
2022-10-22T21:28:35.332Z,6.97
2022-10-22T21:31:05.238Z,6.87
2022-10-22T21:33:32.332Z,7.13
2022-10-22T21:35:59.113Z,7.90
2022-10-22T21:38:26.072Z,6.63
2022-10-22T21:40:53.019Z,6.20
2022-10-22T21:43:20.282Z,8.37
2022-10-22T21:45:47.126Z,7.13
2022-10-22T21:48:14.787Z,6.60
2022-10-22T21:50:43.620Z,6.13
2022-10-22T21:53:12.171Z,7.00
2022-10-22T21:55:41.904Z,6.87
2022-10-22T21:58:09.145Z,6.50
2022-10-22T22:00:36.328Z,6.27
2022-10-22T22:03:06.015Z,6.00
2022-10-22T22:05:33.189Z,7.80
2022-10-22T22:08:00.088Z,8.57
2022-10-22T22:10:27.062Z,7.93
2022-10-22T22:12:53.894Z,9.50
2022-10-22T22:15:20.900Z,8.50
2022-10-22T22:17:47.756Z,6.63
2022-10-22T22:20:14.604Z,5.73
2022-10-22T22:22:41.716Z,5.43
2022-10-22T22:25:09.056Z,5.23
2022-10-22T22:27:35.849Z,5.40
2022-10-22T22:30:02.839Z,7.27
2022-10-22T22:32:29.794Z,5.87
2022-10-22T22:34:56.592Z,5.50
2022-10-22T22:37:23.427Z,5.30
2022-10-22T22:39:50.203Z,5.37
2022-10-22T22:42:17.051Z,5.60
2022-10-22T22:44:43.889Z,5.40
2022-10-22T22:47:10.845Z,5.73
2022-10-22T22:49:37.619Z,5.47
2022-10-22T22:52:04.921Z,5.53
2022-10-22T22:54:31.729Z,6.57
2022-10-22T22:56:58.772Z,6.83
2022-10-22T22:59:25.558Z,6.90
2022-10-22T23:01:52.321Z,6.30
2022-10-22T23:04:23.613Z,6.37
2022-10-22T23:06:51.255Z,6.40
2022-10-22T23:11:48.277Z,6.50
2022-10-22T23:14:16.740Z,6.27
2022-10-22T23:16:47.105Z,6.80
2022-10-22T23:19:16.589Z,6.43
2022-10-22T23:21:49.755Z,6.03
2022-10-22T23:24:19.490Z,8.07
2022-10-22T23:26:48.785Z,10.33
2022-10-22T23:29:26.182Z,8.57
2022-10-22T23:31:54.119Z,7.73
2022-10-22T23:34:24.059Z,6.80
2022-10-22T23:36:52.303Z,8.00
2022-10-22T23:39:21.915Z,7.50
2022-10-22T23:41:48.804Z,7.70
2022-10-22T23:44:15.889Z,7.37
2022-10-22T23:46:43.330Z,7.87
2022-10-22T23:49:10.930Z,7.73
2022-10-22T23:51:38.853Z,7.53
2022-10-22T23:54:07.929Z,6.97
2022-10-22T23:56:35.634Z,7.40
2022-10-22T23:59:03.416Z,7.10
